Time;durP1;ratioP1;P1;durP2;ratioP2;P2;SDS_P1;SDS_P2;PMS_P1;PMS_P2;Temp;Humidity;BMP_temperature;BMP_pressure;BME280_temperature;BME280_humidity;BME280_pressure;Samples;Min_cycle;Max_cycle;Signal;HPM_P1;HPM_P2
2022/06/27 00:04:51;;;;;;;8.48;5.05;;;;;;;19.62;100.00;99745.69;10335481;28;20042;-70
2022/06/27 00:09:52;;;;;;;9.90;5.90;;;;;;;19.55;100.00;99747.72;10335979;28;20502;-70
2022/06/27 00:14:52;;;;;;;9.80;5.60;;;;;;;19.57;100.00;99742.91;10336454;28;20073;-70
2022/06/27 00:19:54;;;;;;;9.55;5.60;;;;;;;19.48;100.00;99736.28;10336099;28;20049;-70
2022/06/27 00:24:55;;;;;;;10.25;5.60;;;;;;;19.64;100.00;99746.28;10333681;28;20046;-69
2022/06/27 00:29:56;;;;;;;12.23;6.35;;;;;;;19.01;100.00;99645.75;10334860;28;20413;-69
2022/06/27 00:34:57;;;;;;;10.27;5.90;;;;;;;18.84;100.00;99602.63;10335089;28;20034;-69
2022/06/27 00:39:58;;;;;;;9.75;6.35;;;;;;;19.56;100.00;99725.94;10355333;28;20050;-69
2022/06/27 00:44:59;;;;;;;10.60;5.95;;;;;;;19.54;100.00;99711.88;10374316;28;20049;-69
2022/06/27 00:50:00;;;;;;;9.85;5.65;;;;;;;19.44;100.00;99698.22;10374761;28;20501;-69
2022/06/27 00:55:02;;;;;;;8.85;6.20;;;;;;;19.58;100.00;99731.06;10375396;28;20061;-69
2022/06/27 01:00:04;;;;;;;10.43;5.95;;;;;;;19.40;100.00;99707.84;10374919;28;20095;-69
2022/06/27 01:05:06;;;;;;;10.27;6.38;;;;;;;19.35;100.00;99711.28;10334556;28;20038;-69
2022/06/27 01:10:08;;;;;;;11.25;6.47;;;;;;;19.45;100.00;99736.78;10333470;28;20038;-69
2022/06/27 01:15:10;;;;;;;12.18;6.20;;;;;;;19.42;100.00;99729.16;10330757;28;20406;-69
2022/06/27 01:20:11;;;;;;;8.20;5.80;;;;;;;19.18;100.00;99723.88;10334210;28;20524;-68
2022/06/27 01:25:14;;;;;;;8.73;5.95;;;;;;;19.27;100.00;99737.78;10332991;28;20043;-68
2022/06/27 01:30:15;;;;;;;7.88;5.80;;;;;;;19.13;100.00;99694.16;10332976;28;20042;-68
2022/06/27 01:35:16;;;;;;;11.30;5.70;;;;;;;18.99;100.00;99690.09;10332299;28;20524;-68
2022/06/27 01:40:17;;;;;;;9.23;5.80;;;;;;;19.22;100.00;99737.66;10332865;28;20035;-69
2022/06/27 01:45:18;;;;;;;6.43;5.70;;;;;;;18.59;100.00;99620.94;10332024;28;20506;-69
2022/06/27 01:50:20;;;;;;;7.75;5.72;;;;;;;19.04;100.00;99698.28;10331662;28;20121;-69
2022/06/27 01:55:21;;;;;;;10.02;5.93;;;;;;;19.33;100.00;99752.97;10331690;28;20054;-69
2022/06/27 02:00:22;;;;;;;10.90;5.82;;;;;;;19.20;100.00;99713.66;10332054;28;20038;-69
2022/06/27 02:05:23;;;;;;;10.00;5.95;;;;;;;19.21;100.00;99709.94;10332297;28;20042;-68
2022/06/27 02:10:24;;;;;;;8.27;5.70;;;;;;;19.48;100.00;99750.56;10332421;28;20073;-68
2022/06/27 02:15:25;;;;;;;8.63;5.70;;;;;;;18.58;100.00;99595.91;10332298;28;20069;-69
2022/06/27 02:20:26;;;;;;;8.68;5.75;;;;;;;18.72;100.00;99612.56;10331879;28;20405;-69
2022/06/27 05:50:36;;;;;;;11.02;3.35;;;;;;;26.75;72.17;99758.00;10553754;27;20798;-67
2022/06/27 05:55:38;;;;;;;5.30;3.13;;;;;;;26.70;72.67;99755.31;10552580;28;20040;-67
2022/06/27 06:00:39;;;;;;;5.80;3.00;;;;;;;26.94;72.28;99744.41;10562728;28;20075;-67
2022/06/27 06:05:41;;;;;;;4.22;2.42;;;;;;;27.09;70.57;99757.84;10553164;28;20050;-67
2022/06/27 06:10:43;;;;;;;5.88;2.90;;;;;;;27.13;69.93;99771.72;10555310;28;20038;-68
2022/06/27 06:15:44;;;;;;;5.40;2.72;;;;;;;27.12;69.17;99759.19;10573080;28;20040;-67
2022/06/27 06:20:45;;;;;;;6.93;3.08;;;;;;;27.45;68.60;99762.88;10573086;28;20050;-68
2022/06/27 06:25:46;;;;;;;6.10;2.83;;;;;;;26.76;67.95;99634.28;10572407;28;20050;-67
2022/06/27 06:30:47;;;;;;;7.30;2.58;;;;;;;26.79;67.39;99649.22;10572169;28;20447;-67
2022/06/27 06:35:48;;;;;;;8.45;2.75;;;;;;;27.50;67.33;99746.44;10571716;28;20043;-67
2022/06/27 06:40:48;;;;;;;25.67;3.20;;;;;;;27.79;67.06;99747.41;10571722;28;20043;-68
2022/06/27 06:45:50;;;;;;;5.13;2.90;;;;;;;27.96;66.21;99747.66;10571683;28;20047;-67
2022/06/27 06:50:52;;;;;;;4.57;2.50;;;;;;;28.22;64.63;99756.25;10540567;28;20044;-68
2022/06/27 06:55:53;;;;;;;8.30;3.22;;;;;;;28.27;63.87;99764.38;10540277;28;20044;-68
2022/06/27 07:00:56;;;;;;;6.70;3.55;;;;;;;27.69;62.99;99669.22;10542802;28;20115;-67
2022/06/27 07:05:58;;;;;;;9.88;3.33;;;;;;;28.35;62.31;99765.59;10543747;28;20039;-67
2022/06/27 07:10:59;;;;;;;6.18;3.25;;;;;;;27.65;61.31;99644.44;10528653;28;20040;-67
2022/06/27 07:16:00;;;;;;;9.70;3.20;;;;;;;28.19;60.84;99733.09;10520074;28;20173;-67
2022/06/27 07:21:03;;;;;;;8.95;3.42;;;;;;;28.55;60.09;99762.50;10520834;28;20151;-68
2022/06/27 07:26:04;;;;;;;9.15;3.22;;;;;;;28.75;58.74;99772.25;10515699;28;20054;-67
2022/06/27 07:31:08;;;;;;;9.00;3.10;;;;;;;28.67;57.89;99751.09;10517125;28;20040;-68
2022/06/27 07:36:15;;;;;;;6.97;2.78;;;;;;;28.82;58.03;99777.31;10505504;28;20051;-69
2022/06/27 07:41:19;;;;;;;6.43;3.28;;;;;;;28.08;56.80;99654.38;10514718;28;20036;-67
2022/06/27 07:46:20;;;;;;;9.18;3.08;;;;;;;28.94;57.44;99753.00;10538754;28;20052;-68
2022/06/27 07:51:21;;;;;;;4.60;2.85;;;;;;;29.11;56.67;99733.28;10499020;28;20052;-68
2022/06/27 07:56:23;;;;;;;5.43;3.17;;;;;;;29.42;55.93;99755.31;10498517;28;20051;-68
2022/06/27 08:01:26;;;;;;;7.60;3.40;;;;;;;29.60;53.55;99734.38;10499047;28;20054;-68
2022/06/27 08:06:29;;;;;;;6.25;2.65;;;;;;;29.52;53.32;99719.47;10498234;28;20492;-67
2022/06/27 08:11:38;;;;;;;10.15;3.20;;;;;;;29.85;52.24;99754.88;10497842;28;20036;-68
2022/06/27 08:16:40;;;;;;;7.95;2.97;;;;;;;29.90;52.90;99738.31;10499031;28;20040;-68
2022/06/27 08:21:43;;;;;;;5.82;2.63;;;;;;;30.12;51.83;99728.47;10498808;28;20141;-68
2022/06/27 08:26:46;;;;;;;7.30;3.13;;;;;;;30.17;51.13;99729.16;10497687;28;20044;-68
2022/06/27 08:31:48;;;;;;;4.63;2.50;;;;;;;30.21;51.18;99723.88;10498249;28;20046;-67
2022/06/27 08:36:50;;;;;;;22.90;3.60;;;;;;;30.44;53.81;99705.47;10497497;28;20052;-68
2022/06/27 08:41:52;;;;;;;4.40;2.50;;;;;;;30.45;52.01;99683.25;10496824;28;20492;-68
2022/06/27 08:46:54;;;;;;;15.13;2.90;;;;;;;30.70;51.44;99672.66;10512448;28;20057;-68
2022/06/27 08:51:55;;;;;;;8.63;2.87;;;;;;;30.84;50.42;99684.34;10502292;28;20047;-68
2022/06/27 08:56:56;;;;;;;7.38;3.13;;;;;;;30.96;50.61;99688.38;10526120;28;20123;-68
2022/06/27 09:01:58;;;;;;;10.23;2.92;;;;;;;30.34;50.34;99582.44;10537915;28;20134;-67
2022/06/27 09:06:59;;;;;;;8.60;3.15;;;;;;;30.59;51.20;99591.84;10538542;28;20518;-68
2022/06/27 09:12:05;;;;;;;9.38;3.10;;;;;;;31.10;50.21;99675.34;10538003;28;20043;-68
2022/06/27 09:17:16;;;;;;;6.88;3.05;;;;;;;31.01;49.70;99663.56;10537892;28;20054;-67
2022/06/27 09:22:19;;;;;;;6.00;2.67;;;;;;;30.95;51.29;99651.13;10537466;28;20042;-68
2022/06/27 09:27:39;;;;;;;5.82;2.60;;;;;;;30.92;51.41;99548.34;10524305;28;20513;-68
2022/06/27 09:32:40;;;;;;;10.23;2.90;;;;;;;31.46;51.17;99644.06;10510455;28;20466;-67
2022/06/27 09:37:58;;;;;;;7.80;2.78;;;;;;;31.44;51.13;99649.06;10495261;28;20135;-68
2022/06/27 09:43:00;;;;;;;9.40;2.88;;;;;;;30.93;51.25;99556.28;10515365;28;20032;-68
2022/06/27 09:48:04;;;;;;;17.33;3.58;;;;;;;31.14;50.33;99561.91;10537203;28;20103;-69
2022/06/27 09:53:06;;;;;;;6.53;2.80;;;;;;;31.60;50.62;99609.00;10532021;28;20464;-68
2022/06/27 09:58:09;;;;;;;8.70;3.00;;;;;;;32.15;49.00;99635.66;10522154;28;20512;-69
2022/06/27 10:03:10;;;;;;;9.73;2.97;;;;;;;31.84;49.38;99633.16;10495349;28;20139;-70
2022/06/27 10:08:12;;;;;;;10.48;3.30;;;;;;;31.65;50.28;99629.97;10495727;28;20150;-68
2022/06/27 10:13:13;;;;;;;14.73;3.67;;;;;;;31.58;49.83;99513.22;10494630;28;20066;-69
2022/06/27 10:18:13;;;;;;;13.27;3.70;;;;;;;32.21;48.78;99626.09;10495212;28;20044;-69
2022/06/27 10:23:14;;;;;;;12.85;2.95;;;;;;;32.36;48.25;99621.19;10496969;28;20075;-69
2022/06/27 10:28:17;;;;;;;13.13;3.40;;;;;;;32.33;48.02;99621.84;10502726;28;20044;-69
2022/06/27 10:33:18;;;;;;;;;;;;;;;32.35;49.16;99619.59;10502369;28;20041;-68
2022/06/27 10:38:32;;;;;;;9.90;3.28;;;;;;;31.50;49.92;99513.25;10502664;28;19920;-68
2022/06/27 10:43:39;;;;;;;9.75;2.85;;;;;;;32.29;50.83;99603.28;10500621;28;20040;-68
2022/06/27 10:48:57;;;;;;;13.88;3.70;;;;;;;32.34;49.14;99587.72;10501528;28;20067;-68
2022/06/27 10:54:06;;;;;;;15.93;3.42;;;;;;;32.01;48.89;99602.94;10502647;28;20496;-68
2022/06/27 10:59:28;;;;;;;16.20;3.45;;;;;;;31.70;50.25;99594.91;10501574;28;20075;-69
2022/06/27 11:04:31;;;;;;;19.20;3.80;;;;;;;31.29;51.44;99596.28;10502367;28;20041;-69
2022/06/27 11:09:45;;;;;;;16.20;3.20;;;;;;;30.89;52.09;99590.13;10500509;28;20052;-69
2022/06/27 11:14:59;;;;;;;11.98;3.17;;;;;;;29.60;53.12;99402.41;10500592;28;20032;-69
2022/06/27 11:20:20;;;;;;;16.38;3.67;;;;;;;30.47;54.45;99541.19;10525619;28;20040;-68
2022/06/27 11:25:23;;;;;;;22.70;3.42;;;;;;;29.66;56.32;99461.38;10541071;28;20044;-68
2022/06/27 11:42:45;;;;;;;9.45;3.17;;;;;;;29.19;59.28;99494.59;10490988;28;20088;-67
2022/06/27 11:47:46;;;;;;;12.98;3.38;;;;;;;28.39;61.98;99493.44;10500347;28;20051;-67
2022/06/27 11:52:52;;;;;;;7.20;2.60;;;;;;;27.99;65.63;99490.47;10498659;28;20373;-67
2022/06/27 11:57:56;;;;;;;10.32;3.70;;;;;;;27.62;65.97;99530.44;10499851;28;20044;-68
2022/06/27 12:03:11;;;;;;;7.40;3.00;;;;;;;27.19;69.74;99519.75;10499551;28;20072;-66
2022/06/27 12:08:14;;;;;;;13.85;3.83;;;;;;;26.65;71.25;99529.25;10498132;28;20485;-67
2022/06/27 12:13:15;;;;;;;15.55;6.57;;;;;;;26.19;71.97;99544.28;10486483;28;20040;-69
2022/06/27 12:18:17;;;;;;;13.80;3.92;;;;;;;26.22;72.66;99532.00;10473742;28;20068;-67
2022/06/27 12:23:17;;;;;;;15.40;3.55;;;;;;;26.39;72.53;99547.84;10471617;28;20076;-66
2022/06/27 12:28:18;;;;;;;15.98;3.08;;;;;;;26.21;72.65;99533.09;10476589;28;20464;-68
2022/06/27 12:33:19;;;;;;;9.63;3.78;;;;;;;25.89;73.14;99564.47;10445194;28;20618;-68
2022/06/27 12:38:20;;;;;;;14.63;3.47;;;;;;;25.80;74.06;99609.72;10448926;28;20147;-68
2022/06/27 12:43:21;;;;;;;9.70;3.33;;;;;;;25.09;76.73;99607.53;10450236;28;20516;-66
2022/06/27 12:48:22;;;;;;;20.23;5.18;;;;;;;24.49;79.81;99648.31;10452082;28;20045;-67
2022/06/27 12:53:22;;;;;;;20.58;5.30;;;;;;;23.16;83.29;99577.91;10455116;28;20048;-68
2022/06/27 12:58:24;;;;;;;19.23;4.70;;;;;;;22.72;86.69;99671.19;10453806;28;20496;-67
2022/06/27 13:03:25;;;;;;;17.35;5.45;;;;;;;21.63;89.35;99565.34;10448723;28;20401;-67
2022/06/27 13:08:26;;;;;;;12.82;4.50;;;;;;;22.18;91.98;99684.97;10452644;28;20037;-66
2022/06/27 13:13:27;;;;;;;12.60;4.05;;;;;;;21.38;93.40;99592.16;10452411;28;20043;-65
2022/06/27 13:18:28;;;;;;;33.35;6.70;;;;;;;21.67;95.26;99648.63;10453255;28;20036;-68
2022/06/27 13:23:29;;;;;;;15.77;4.85;;;;;;;21.93;98.14;99695.56;10448900;28;20419;-68
2022/06/27 13:28:31;;;;;;;16.23;5.10;;;;;;;21.64;100.00;99666.97;10439239;28;20574;-67
2022/06/27 13:33:32;;;;;;;15.20;4.90;;;;;;;21.81;100.00;99726.31;10426356;28;20045;-68
2022/06/27 13:38:33;;;;;;;37.63;6.13;;;;;;;22.11;100.00;99746.59;10424803;28;20506;-70
2022/06/27 13:43:34;;;;;;;18.55;5.00;;;;;;;22.24;100.00;99738.06;10436089;28;20498;-67
2022/06/27 13:48:35;;;;;;;15.48;4.38;;;;;;;22.43;100.00;99741.16;10426042;28;20136;-71
2022/06/27 13:53:36;;;;;;;15.30;5.05;;;;;;;22.62;100.00;99714.47;10432636;28;20569;-67
2022/06/27 13:58:37;;;;;;;24.63;5.72;;;;;;;22.76;100.00;99712.09;10432515;28;20063;-67
2022/06/27 14:03:38;;;;;;;23.08;5.13;;;;;;;22.83;99.55;99730.84;10437261;28;20044;-67
2022/06/27 14:08:38;;;;;;;20.08;5.28;;;;;;;;;;10436780;28;20159;-67
2022/06/27 14:13:40;;;;;;;20.98;6.75;;;;;;;22.41;100.00;99612.63;10441913;28;20040;-67
2022/06/27 14:18:41;;;;;;;22.33;6.55;;;;;;;22.53;100.00;99651.09;10429151;28;20041;-66
2022/06/27 14:23:42;;;;;;;23.90;6.63;;;;;;;22.44;100.00;99663.50;10458862;28;20488;-73
2022/06/27 14:28:43;;;;;;;32.80;7.30;;;;;;;21.62;100.00;99581.81;10413016;28;20550;-66
2022/06/27 14:33:43;;;;;;;20.85;5.88;;;;;;;22.46;100.00;99707.34;10402774;28;20044;-67
2022/06/27 14:38:44;;;;;;;18.13;5.88;;;;;;;22.56;100.00;99702.81;10397889;28;20053;-66
2022/06/27 14:43:45;;;;;;;16.67;4.90;;;;;;;22.26;100.00;99676.38;10412762;28;20152;-66
2022/06/27 14:48:46;;;;;;;19.58;5.20;;;;;;;21.99;99.80;99689.16;10418671;28;20131;-67
2022/06/27 14:53:47;;;;;;;24.60;6.55;;;;;;;21.98;100.00;99709.16;10419307;28;20187;-67
2022/06/27 14:58:48;;;;;;;24.25;6.97;;;;;;;21.20;100.00;99560.91;10418980;28;20430;-67
2022/06/27 15:03:50;;;;;;;18.98;6.32;;;;;;;20.93;100.00;99594.13;10417127;28;20033;-67
2022/06/27 15:08:51;;;;;;;22.17;5.53;;;;;;;21.59;100.00;99685.03;10412752;28;20056;-67
2022/06/27 15:13:51;;;;;;;19.30;6.75;;;;;;;21.65;100.00;99673.19;10458611;28;20091;-67
2022/06/27 15:18:52;;;;;;;21.17;6.32;;;;;;;21.59;100.00;99668.81;10459558;28;20068;-66
2022/06/27 15:23:53;;;;;;;22.17;6.80;;;;;;;21.53;100.00;99638.22;10458917;28;20033;-65
2022/06/27 15:28:54;;;;;;;22.38;5.82;;;;;;;20.90;100.00;99548.75;10458565;28;20056;-66
2022/06/27 15:33:56;;;;;;;17.65;5.75;;;;;;;20.81;100.00;99550.28;10458994;28;20059;-67
2022/06/27 15:38:58;;;;;;;20.55;5.90;;;;;;;20.94;100.00;99549.09;10459106;28;20420;-66
2022/06/27 15:43:58;;;;;;;20.50;6.45;;;;;;;21.99;100.00;99689.97;10456779;28;20048;-67
2022/06/27 15:48:59;;;;;;;29.92;6.72;;;;;;;21.36;100.00;99587.03;10457023;28;20041;-67
2022/06/27 15:54:03;;;;;;;26.25;6.55;;;;;;;22.18;100.00;99736.38;10458117;28;20415;-67
2022/06/27 15:59:04;;;;;;;24.17;9.32;;;;;;;22.16;100.00;99710.63;10458006;28;20086;-66
2022/06/27 16:04:04;;;;;;;20.25;7.57;;;;;;;22.32;100.00;99744.88;10457150;28;20106;-66
2022/06/27 16:09:05;;;;;;;25.75;8.02;;;;;;;22.30;100.00;99739.72;10457780;28;20056;-68
2022/06/27 16:14:06;;;;;;;19.27;6.35;;;;;;;22.23;100.00;99766.19;10456469;28;20617;-67
2022/06/27 16:19:07;;;;;;;19.73;6.90;;;;;;;21.48;100.00;99661.69;10457646;28;20040;-66
2022/06/27 16:24:08;;;;;;;21.55;6.85;;;;;;;21.51;100.00;99696.28;10455995;28;20580;-66
2022/06/27 16:29:09;;;;;;;26.50;6.65;;;;;;;21.53;100.00;99691.47;10456431;28;20041;-67
2022/06/27 16:34:15;;;;;;;27.13;7.15;;;;;;;21.78;100.00;99689.00;10455311;28;20132;-65
2022/06/27 16:39:16;;;;;;;25.73;7.75;;;;;;;22.17;100.00;99737.47;10439302;28;20053;-65
2022/06/27 16:44:17;;;;;;;15.20;6.43;;;;;;;22.22;100.00;99734.78;10410975;28;20045;-66
2022/06/27 16:49:17;;;;;;;26.60;7.32;;;;;;;22.26;100.00;99779.19;10411397;28;20466;-69
2022/06/27 16:54:18;;;;;;;17.50;7.20;;;;;;;21.48;100.00;99626.53;10411043;28;20120;-73
2022/06/27 16:59:20;;;;;;;29.10;6.78;;;;;;;22.26;100.00;99749.44;10426735;28;20128;-66
2022/06/27 17:04:21;;;;;;;20.15;7.43;;;;;;;20.85;100.00;99554.13;10409670;28;20565;-65
2022/06/27 17:09:21;;;;;;;21.05;7.90;;;;;;;21.59;100.00;99668.81;10426457;28;20045;-66
2022/06/27 17:14:22;;;;;;;17.63;6.97;;;;;;;22.22;100.00;99758.31;10405009;28;20058;-65
2022/06/27 17:19:23;;;;;;;22.55;6.55;;;;;;;22.21;100.00;99779.16;10410535;28;20041;-65
2022/06/27 17:24:24;;;;;;;21.88;7.70;;;;;;;22.24;100.00;99773.22;10411469;28;20038;-64
2022/06/27 17:29:24;;;;;;;21.33;7.20;;;;;;;22.33;100.00;99787.91;10411751;28;20500;-65
2022/06/27 17:34:25;;;;;;;23.13;10.15;;;;;;;22.34;100.00;99789.53;10408803;28;20171;-66
2022/06/27 17:39:26;;;;;;;23.38;7.32;;;;;;;22.28;100.00;99782.44;10413364;28;20057;-65
2022/06/27 17:44:27;;;;;;;20.60;6.63;;;;;;;21.96;100.00;99768.91;10413266;28;20049;-66
2022/06/27 17:49:28;;;;;;;25.08;6.70;;;;;;;22.11;100.00;99798.78;10411985;28;20049;-65
2022/06/27 17:54:29;;;;;;;24.63;6.70;;;;;;;22.10;100.00;99785.50;10412920;28;20136;-68
2022/06/27 17:59:29;;;;;;;24.77;6.72;;;;;;;21.98;100.00;99764.03;10413776;28;20033;-66
2022/06/27 18:04:30;;;;;;;46.67;7.53;;;;;;;22.23;100.00;99836.53;10412302;28;20038;-65
2022/06/27 18:09:31;;;;;;;21.17;6.40;;;;;;;21.38;100.00;99690.22;10412308;28;20077;-65
2022/06/27 18:14:32;;;;;;;21.15;6.93;;;;;;;22.29;100.00;99830.09;10412213;28;20056;-65
2022/06/27 18:19:35;;;;;;;24.38;7.05;;;;;;;21.62;100.00;99717.75;10412381;28;20046;-68
2022/06/27 18:24:40;;;;;;;19.23;6.23;;;;;;;21.52;100.00;99712.25;10412122;28;20075;-65
2022/06/27 18:29:41;;;;;;;14.05;6.35;;;;;;;22.10;100.00;99801.75;10394495;28;20100;-66
2022/06/27 18:34:42;;;;;;;21.75;6.35;;;;;;;22.29;100.00;99827.38;10373250;28;20084;-66
2022/06/27 18:39:43;;;;;;;28.30;6.45;;;;;;;21.80;100.00;99751.72;10411079;28;20089;-68
2022/06/27 18:44:44;;;;;;;18.27;6.50;;;;;;;22.28;100.00;99820.31;10389687;28;21124;-67
2022/06/27 18:49:45;;;;;;;28.98;8.40;;;;;;;22.22;100.00;99802.41;10395456;28;20092;-68
2022/06/27 18:54:47;;;;;;;21.50;7.55;;;;;;;22.16;100.00;99806.13;10401643;28;20044;-67
2022/06/27 18:59:48;;;;;;;20.23;7.50;;;;;;;21.43;100.00;99709.22;10407944;28;20034;-66
2022/06/27 19:04:49;;;;;;;20.02;7.10;;;;;;;21.56;100.00;99747.69;10377314;28;20045;-68
2022/06/27 19:09:50;;;;;;;21.98;7.03;;;;;;;22.02;100.00;99829.28;10392738;28;20049;-65
2022/06/27 19:14:51;;;;;;;34.17;7.38;;;;;;;21.30;100.00;99715.00;10370563;28;20054;-66
2022/06/27 19:19:52;;;;;;;21.90;7.53;;;;;;;22.02;100.00;99824.69;10400285;28;20049;-68
2022/06/27 19:24:54;;;;;;;22.25;7.00;;;;;;;21.81;100.00;99803.94;10416863;28;20041;-66
2022/06/27 19:29:55;;;;;;;22.33;7.50;;;;;;;21.96;100.00;99809.47;10417426;28;20416;-66
2022/06/27 19:34:56;;;;;;;27.42;8.05;;;;;;;21.25;100.00;99685.22;10414902;28;20040;-66
2022/06/27 19:39:56;;;;;;;19.23;7.15;;;;;;;21.75;100.00;99773.31;10415557;28;20045;-66
2022/06/27 19:44:57;;;;;;;18.13;7.20;;;;;;;22.01;100.00;99820.31;10413827;28;20052;-66
2022/06/27 19:49:58;;;;;;;22.10;7.22;;;;;;;22.04;100.00;99835.22;10416081;28;20128;-66
2022/06/27 19:54:59;;;;;;;21.23;7.30;;;;;;;22.04;100.00;99817.09;10436626;28;20141;-66
2022/06/27 20:00:00;;;;;;;21.98;7.07;;;;;;;21.09;100.00;99653.69;10380341;28;20087;-66
2022/06/27 20:05:01;;;;;;;22.00;8.00;;;;;;;21.98;100.00;99779.47;10397385;28;20049;-67
2022/06/27 20:10:06;;;;;;;23.92;7.20;;;;;;;22.07;100.00;99802.25;10413450;28;20060;-67
2022/06/27 20:15:08;;;;;;;21.70;6.88;;;;;;;21.14;100.00;99651.06;10416642;28;20087;-67
2022/06/27 20:20:10;;;;;;;29.13;7.38;;;;;;;21.58;100.00;99722.06;10415900;28;20401;-67
2022/06/27 20:25:16;;;;;;;29.88;8.13;;;;;;;21.71;100.00;99753.25;10414972;28;20046;-67
2022/06/27 20:30:17;;;;;;;33.97;8.32;;;;;;;22.00;100.00;99824.09;10413623;28;20045;-67
2022/06/27 20:35:18;;;;;;;40.15;8.40;;;;;;;21.90;100.00;99826.72;10414836;28;20045;-67
2022/06/27 20:40:19;;;;;;;23.35;8.07;;;;;;;22.00;100.00;99850.34;10415146;28;20053;-67
2022/06/27 20:45:20;;;;;;;28.45;7.85;;;;;;;21.81;100.00;99830.97;10413087;28;20099;-67
2022/06/27 20:50:21;;;;;;;35.28;7.85;;;;;;;21.11;100.00;99717.19;10414092;28;20084;-67
2022/06/27 20:55:22;;;;;;;21.17;7.47;;;;;;;20.96;100.00;99698.94;10414248;28;20068;-67
2022/06/27 21:00:23;;;;;;;20.50;6.65;;;;;;;21.64;100.00;99804.00;10414539;28;20092;-67
2022/06/27 21:05:23;;;;;;;25.13;7.07;;;;;;;21.76;100.00;99825.50;10413614;28;20052;-67
2022/06/27 21:15:44;;;;;;;27.85;6.90;;;;;;;21.87;100.00;99859.69;10404574;28;20033;-67
2022/06/27 21:20:44;;;;;;;29.02;7.30;;;;;;;21.81;100.00;99848.00;10398914;28;20390;-67
2022/06/27 21:25:45;;;;;;;23.38;7.68;;;;;;;21.80;100.00;99818.50;10429181;28;20061;-67
2022/06/27 21:30:46;;;;;;;25.15;7.13;;;;;;;21.69;100.00;99792.41;10412942;28;20075;-67
2022/06/27 21:35:47;;;;;;;32.60;7.88;;;;;;;21.78;100.00;99832.28;10412942;28;20069;-67
2022/06/27 21:40:48;;;;;;;24.77;7.38;;;;;;;21.57;100.00;99800.69;10413322;28;20492;-67
2022/06/27 21:45:48;;;;;;;39.55;7.57;;;;;;;21.62;100.00;99798.03;10413125;28;20534;-67
2022/06/27 21:50:49;;;;;;;25.05;7.57;;;;;;;20.84;100.00;99690.16;10413022;28;20136;-67
2022/06/27 21:55:50;;;;;;;30.25;7.32;;;;;;;20.86;100.00;99671.81;10427589;28;20526;-67
2022/06/27 22:00:51;;;;;;;29.15;7.28;;;;;;;21.47;100.00;99787.06;10413185;28;20124;-67
2022/06/27 22:05:53;;;;;;;26.15;7.63;;;;;;;21.64;100.00;99798.59;10412179;28;20048;-67
2022/06/27 22:10:54;;;;;;;28.73;7.35;;;;;;;20.82;100.00;99670.72;10413251;28;20496;-67
2022/06/27 22:15:55;;;;;;;33.38;7.57;;;;;;;20.95;100.00;99686.50;10412483;28;20041;-67
2022/06/27 22:20:56;;;;;;;29.70;6.93;;;;;;;21.64;100.00;99796.72;10417105;28;20497;-67
2022/06/27 22:25:56;;;;;;;26.90;7.43;;;;;;;21.38;100.00;99746.97;10420355;28;20471;-67
2022/06/27 22:30:57;;;;;;;31.27;8.02;;;;;;;21.57;100.00;99779.91;10421258;28;20045;-67
2022/06/27 22:35:58;;;;;;;39.05;8.32;;;;;;;21.36;100.00;99751.84;10419882;28;20046;-67
2022/06/27 22:40:59;;;;;;;30.20;7.50;;;;;;;21.56;100.00;99788.25;10419886;28;20053;-67
2022/06/27 22:45:59;;;;;;;38.22;7.65;;;;;;;21.57;100.00;99795.28;10419688;28;20139;-67
2022/06/27 22:51:00;;;;;;;27.70;6.57;;;;;;;20.74;100.00;99685.44;10419459;28;20033;-67
2022/06/27 22:56:01;;;;;;;36.03;9.10;;;;;;;21.52;100.00;99820.38;10418598;28;20137;-67
2022/06/27 23:01:02;;;;;;;37.40;7.70;;;;;;;20.71;100.00;99695.94;10419591;28;20045;-67
2022/06/27 23:06:04;;;;;;;31.58;7.78;;;;;;;21.50;100.00;99824.38;10418835;28;20042;-67
2022/06/27 23:11:05;;;;;;;32.25;7.20;;;;;;;21.47;100.00;99822.19;10418455;28;20042;-68
2022/06/27 23:16:05;;;;;;;39.58;7.82;;;;;;;21.39;100.00;99805.38;10417982;28;20626;-67
2022/06/27 23:21:06;;;;;;;36.60;7.53;;;;;;;21.39;100.00;99821.56;10417734;28;20500;-67
2022/06/27 23:26:07;;;;;;;32.38;7.53;;;;;;;21.41;100.00;99819.41;10418083;28;20547;-67
2022/06/27 23:31:08;;;;;;;23.67;6.80;;;;;;;21.19;100.00;99789.69;10418009;28;20048;-67
2022/06/27 23:36:09;;;;;;;34.53;6.57;;;;;;;21.07;100.00;99807.91;10433485;28;20049;-66
2022/06/27 23:41:09;;;;;;;41.83;7.63;;;;;;;20.93;100.00;99782.31;10417761;28;20515;-67
2022/06/27 23:46:11;;;;;;;28.40;7.20;;;;;;;21.19;100.00;99816.69;10417279;28;20046;-67
2022/06/27 23:51:12;;;;;;;30.52;6.75;;;;;;;21.18;100.00;99808.84;10416435;28;20056;-67
2022/06/27 23:56:12;;;;;;;38.22;6.93;;;;;;;20.89;100.00;99773.09;10417089;28;20497;-67
